createdAt,value
2018-04-22T00:00:10.798Z,10.04
2018-04-22T00:01:39.184Z,10.06
2018-04-22T00:03:06.489Z,10.12
2018-04-22T00:04:33.701Z,10.18
2018-04-22T00:06:01.049Z,10.22
2018-04-22T00:07:28.522Z,10.27
2018-04-22T00:08:55.899Z,10.17
2018-04-22T00:10:22.173Z,10.00
2018-04-22T00:11:52.375Z,9.86
2018-04-22T00:13:17.606Z,9.81
2018-04-22T00:14:44.671Z,9.82
2018-04-22T00:16:11.841Z,9.92
2018-04-22T00:17:39.144Z,10.02
2018-04-22T00:19:04.997Z,10.09
2018-04-22T00:20:32.499Z,10.17
2018-04-22T00:22:00.431Z,10.22
2018-04-22T00:23:26.367Z,10.27
2018-04-22T00:24:53.683Z,10.31
2018-04-22T00:26:22.016Z,10.35
2018-04-22T00:27:48.224Z,10.38
2018-04-22T00:29:15.483Z,10.40
2018-04-22T00:30:42.617Z,10.43
2018-04-22T00:32:10.859Z,10.42
2018-04-22T00:33:38.215Z,10.42
2018-04-22T00:35:05.591Z,10.39
2018-04-22T00:36:31.424Z,10.37
2018-04-22T00:37:58.890Z,10.34
2018-04-22T00:39:25.958Z,10.29
2018-04-22T00:40:53.387Z,10.24
2018-04-22T00:42:21.627Z,10.21
2018-04-22T00:43:47.903Z,10.19
2018-04-22T00:45:15.063Z,10.17
2018-04-22T00:46:42.360Z,10.09
2018-04-22T00:48:09.650Z,9.95
2018-04-22T00:49:37.933Z,9.88
2018-04-22T00:51:03.664Z,9.71
2018-04-22T00:52:30.890Z,9.62
2018-04-22T00:53:59.194Z,9.57
2018-04-22T00:55:25.250Z,9.55
2018-04-22T00:56:53.415Z,9.54
2018-04-22T00:58:19.457Z,9.56
2018-04-22T00:59:46.855Z,9.61
2018-04-22T01:01:15.010Z,9.63
2018-04-22T01:02:41.473Z,9.68
2018-04-22T01:04:08.724Z,9.73
2018-04-22T01:05:35.964Z,9.77
2018-04-22T01:07:03.023Z,9.78
2018-04-22T01:08:32.184Z,9.80
2018-04-22T01:09:58.273Z,9.81
2018-04-22T01:11:24.441Z,9.80
2018-04-22T01:12:51.489Z,9.81
2018-04-22T01:14:18.961Z,9.82
2018-04-22T01:15:47.182Z,9.75
2018-04-22T01:17:13.323Z,9.49
2018-04-22T01:18:40.657Z,9.24
2018-04-22T01:20:08.419Z,9.09
2018-04-22T01:21:35.827Z,9.01
2018-04-22T01:23:02.015Z,9.05
2018-04-22T01:24:30.404Z,9.09
2018-04-22T01:25:56.357Z,9.17
2018-04-22T01:27:24.691Z,9.25
2018-04-22T01:28:50.900Z,9.34
2018-04-22T01:30:18.945Z,9.38
2018-04-22T01:31:46.115Z,9.38
2018-04-22T01:33:13.464Z,9.38
2018-04-22T01:34:39.750Z,9.31
2018-04-22T01:36:07.067Z,9.26
2018-04-22T01:37:34.299Z,9.16
2018-04-22T01:39:02.648Z,8.94
2018-04-22T01:40:30.092Z,8.70
2018-04-22T01:41:56.440Z,8.62
2018-04-22T01:43:23.600Z,8.64
2018-04-22T01:44:51.849Z,8.72
2018-04-22T01:46:17.952Z,8.82
2018-04-22T01:47:45.149Z,8.89
2018-04-22T01:49:12.280Z,8.98
2018-04-22T01:50:39.774Z,9.08
2018-04-22T01:52:07.042Z,9.14
2018-04-22T01:53:35.091Z,9.17
2018-04-22T01:55:01.249Z,9.09
2018-04-22T01:56:28.350Z,8.98
2018-04-22T01:57:56.566Z,9.00
2018-04-22T01:59:22.813Z,9.03
2018-04-22T02:00:50.235Z,9.07
2018-04-22T02:02:17.210Z,9.13
2018-04-22T02:03:45.331Z,9.18
2018-04-22T02:05:12.506Z,9.24
2018-04-22T02:06:39.865Z,9.27
2018-04-22T02:08:07.233Z,9.22
2018-04-22T02:09:33.504Z,9.02
2018-04-22T02:11:01.828Z,8.75
2018-04-22T02:12:28.049Z,8.51
2018-04-22T02:13:55.446Z,8.32
2018-04-22T02:15:22.313Z,8.20
2018-04-22T02:16:49.799Z,8.09
2018-04-22T02:18:17.858Z,8.03
2018-04-22T02:19:43.904Z,8.08
2018-04-22T02:21:11.207Z,8.17
2018-04-22T02:22:39.412Z,8.26
2018-04-22T02:24:05.244Z,8.30
2018-04-22T02:25:32.635Z,8.29
2018-04-22T02:27:00.994Z,8.29
2018-04-22T02:28:28.137Z,8.30
2018-04-22T02:29:55.570Z,8.25
2018-04-22T02:31:21.766Z,8.29
2018-04-22T02:32:49.711Z,8.38
2018-04-22T02:34:16.009Z,8.42
2018-04-22T02:35:42.940Z,8.45
2018-04-22T02:37:11.337Z,8.49
2018-04-22T02:38:37.244Z,8.52
2018-04-22T02:40:04.599Z,8.46
2018-04-22T02:41:31.875Z,8.39
2018-04-22T02:42:59.239Z,8.39
2018-04-22T02:44:26.495Z,8.40
2018-04-22T02:45:53.811Z,8.26
2018-04-22T02:47:21.026Z,8.15
2018-04-22T02:48:49.216Z,8.05
2018-04-22T02:50:16.373Z,8.02
2018-04-22T02:51:43.844Z,7.95
2018-04-22T02:53:11.218Z,7.90
2018-04-22T02:54:37.619Z,7.95
2018-04-22T02:56:04.708Z,8.04
2018-04-22T02:57:32.560Z,8.13
2018-04-22T02:58:59.908Z,8.18
2018-04-22T03:00:26.202Z,8.22
2018-04-22T03:01:52.955Z,8.25
2018-04-22T03:03:20.807Z,8.29
2018-04-22T03:04:47.971Z,8.31
2018-04-22T03:06:15.061Z,8.34
2018-04-22T03:07:41.407Z,8.36
2018-04-22T03:09:08.723Z,8.38
2018-04-22T03:10:35.539Z,8.37
2018-04-22T03:12:03.767Z,8.37
2018-04-22T03:13:31.161Z,8.32
2018-04-22T03:14:57.450Z,8.31
2018-04-22T03:16:25.789Z,8.28
2018-04-22T03:17:51.741Z,8.21
2018-04-22T03:19:19.860Z,8.21
2018-04-22T03:20:45.984Z,8.24
2018-04-22T03:22:13.260Z,8.24
2018-04-22T03:23:40.344Z,8.22
2018-04-22T03:25:07.256Z,8.21
2018-04-22T03:26:34.655Z,8.21
2018-04-22T03:28:03.092Z,8.23
2018-04-22T03:29:29.341Z,8.23
2018-04-22T03:30:56.650Z,8.26
2018-04-22T03:32:24.789Z,8.28
2018-04-22T03:33:51.969Z,8.29
2018-04-22T03:35:18.224Z,8.32
2018-04-22T03:36:46.352Z,8.38
2018-04-22T03:38:12.597Z,8.42
2018-04-22T03:39:39.712Z,8.40
2018-04-22T03:41:07.945Z,8.37
2018-04-22T03:42:33.948Z,8.35
2018-04-22T03:44:01.792Z,8.35
2018-04-22T03:45:29.260Z,8.30
2018-04-22T03:46:56.374Z,8.22
2018-04-22T03:48:22.340Z,8.16
2018-04-22T03:49:49.677Z,8.11
2018-04-22T03:51:16.649Z,8.08
2018-04-22T03:52:45.143Z,8.08
2018-04-22T03:54:11.356Z,8.05
2018-04-22T03:55:38.571Z,8.01
2018-04-22T03:57:05.734Z,7.95
2018-04-22T03:58:34.094Z,7.89
2018-04-22T04:00:01.518Z,7.81
2018-04-22T04:01:27.903Z,7.80
2018-04-22T04:02:55.147Z,7.81
2018-04-22T04:04:22.348Z,7.80
2018-04-22T04:05:49.845Z,7.79
2018-04-22T04:07:16.870Z,7.84
2018-04-22T04:08:43.939Z,7.91
2018-04-22T04:10:11.077Z,7.94
2018-04-22T04:11:38.443Z,8.01
2018-04-22T04:13:05.774Z,8.06
2018-04-22T04:14:33.909Z,8.06
2018-04-22T04:16:00.166Z,8.09
2018-04-22T04:17:28.471Z,8.13
2018-04-22T04:18:54.635Z,8.14
2018-04-22T04:20:22.017Z,8.16
2018-04-22T04:21:50.348Z,8.17
2018-04-22T04:23:16.268Z,8.17
2018-04-22T04:24:43.425Z,8.17
2018-04-22T04:26:10.675Z,8.19
2018-04-22T04:27:37.774Z,8.14
2018-04-22T04:29:06.097Z,7.97
2018-04-22T04:30:32.278Z,7.81
2018-04-22T04:31:59.472Z,7.69
2018-04-22T04:33:27.684Z,7.63
2018-04-22T04:34:53.607Z,7.60
2018-04-22T04:36:21.889Z,7.61
2018-04-22T04:37:48.936Z,7.66
2018-04-22T04:39:15.178Z,7.73
2018-04-22T04:40:42.508Z,7.73
2018-04-22T04:42:09.858Z,7.67
2018-04-22T04:43:37.031Z,7.63
2018-04-22T04:45:05.260Z,7.54
2018-04-22T04:46:32.485Z,7.42
2018-04-22T04:47:59.667Z,7.31
2018-04-22T04:49:25.790Z,7.23
2018-04-22T04:50:54.070Z,7.19
2018-04-22T04:52:20.231Z,7.22
2018-04-22T04:53:47.530Z,7.27
2018-04-22T04:55:14.747Z,7.34
2018-04-22T04:56:42.142Z,7.41
2018-04-22T04:58:09.555Z,7.44
2018-04-22T04:59:37.850Z,7.48
2018-04-22T05:01:05.108Z,7.57
2018-04-22T05:02:32.526Z,7.60
2018-04-22T05:03:58.858Z,7.67
2018-04-22T05:05:27.253Z,7.75
2018-04-22T05:06:53.768Z,7.94
2018-04-22T05:08:21.990Z,8.10
2018-04-22T05:09:48.315Z,8.20
2018-04-22T05:11:15.295Z,8.19
2018-04-22T05:12:43.641Z,8.17
2018-04-22T05:14:10.641Z,8.18
2018-04-22T05:15:36.855Z,8.22
2018-04-22T05:17:04.328Z,8.24
2018-04-22T05:18:31.704Z,8.24
2018-04-22T05:19:59.115Z,8.26
2018-04-22T05:21:26.414Z,8.31
2018-04-22T05:22:54.676Z,8.32
2018-04-22T05:24:21.855Z,8.36
2018-04-22T05:25:49.053Z,8.42
2018-04-22T05:27:15.306Z,8.47
2018-04-22T05:28:43.656Z,8.51
2018-04-22T05:30:10.010Z,8.55
2018-04-22T05:31:37.379Z,8.60
2018-04-22T05:33:05.836Z,8.64
2018-04-22T05:34:32.344Z,8.70
2018-04-22T05:35:59.591Z,8.76
2018-04-22T05:37:27.864Z,8.89
2018-04-22T05:38:54.148Z,9.06
2018-04-22T05:40:22.417Z,9.26
2018-04-22T05:41:49.788Z,9.45
2018-04-22T05:43:16.069Z,9.61
2018-04-22T05:44:44.184Z,9.80
2018-04-22T05:46:10.557Z,10.04
2018-04-22T05:47:38.842Z,10.30
2018-04-22T05:49:06.148Z,10.51
2018-04-22T05:50:33.335Z,10.76
2018-04-22T05:51:59.907Z,10.99
2018-04-22T05:53:27.095Z,11.21
2018-04-22T05:54:55.533Z,11.55
2018-04-22T05:56:22.666Z,11.92
2018-04-22T05:57:48.929Z,12.27
2018-04-22T05:59:16.428Z,12.57
2018-04-22T06:00:43.490Z,12.83
2018-04-22T06:02:10.973Z,13.10
2018-04-22T06:03:39.227Z,13.27
2018-04-22T06:05:05.630Z,13.38
2018-04-22T06:06:33.782Z,13.44
2018-04-22T06:08:00.270Z,13.41
2018-04-22T06:09:27.524Z,13.27
2018-04-22T06:10:55.721Z,13.21
2018-04-22T06:12:22.067Z,13.11
2018-04-22T06:13:50.171Z,13.19
2018-04-22T06:15:17.271Z,13.30
2018-04-22T06:16:44.608Z,13.28
2018-04-22T06:18:11.915Z,13.40
2018-04-22T06:19:38.214Z,13.52
2018-04-22T06:21:05.705Z,13.58
2018-04-22T06:22:34.174Z,13.66
2018-04-22T06:24:00.575Z,13.70
2018-04-22T06:25:27.918Z,13.65
2018-04-22T06:26:55.326Z,13.53
2018-04-22T06:28:22.703Z,13.39
2018-04-22T06:29:50.884Z,13.46
2018-04-22T06:31:17.159Z,13.51
2018-04-22T06:32:45.380Z,13.53
2018-04-22T06:34:11.642Z,13.47
2018-04-22T06:35:38.986Z,13.46
2018-04-22T06:37:07.300Z,13.39
2018-04-22T06:38:33.662Z,13.25
2018-04-22T06:40:01.955Z,13.16
2018-04-22T06:41:29.080Z,13.10
2018-04-22T06:42:55.390Z,13.03
2018-04-22T06:44:23.622Z,13.07
2018-04-22T06:45:49.963Z,13.09
2018-04-22T06:47:17.221Z,13.09
2018-04-22T06:48:44.618Z,13.07
2018-04-22T06:50:13.039Z,13.05
2018-04-22T06:51:39.236Z,13.07
2018-04-22T06:53:06.714Z,13.11
2018-04-22T06:54:34.051Z,13.12
2018-04-22T06:56:02.521Z,13.23
2018-04-22T06:57:28.745Z,13.28
2018-04-22T06:58:56.096Z,13.27
2018-04-22T07:00:24.442Z,13.21
2018-04-22T07:01:50.903Z,13.25
2018-04-22T07:03:18.245Z,13.28
2018-04-22T07:04:45.637Z,13.38
2018-04-22T07:06:12.835Z,13.45
2018-04-22T07:07:41.228Z,13.54
2018-04-22T07:09:08.586Z,13.62
2018-04-22T07:10:34.871Z,13.67
2018-04-22T07:12:02.091Z,13.70
2018-04-22T07:13:30.236Z,13.74
2018-04-22T07:14:56.720Z,13.73
2018-04-22T07:16:24.858Z,13.75
2018-04-22T07:17:51.146Z,13.67
2018-04-22T07:19:19.474Z,13.68
2018-04-22T07:20:45.690Z,13.77
2018-04-22T07:22:12.569Z,13.77
2018-04-22T07:23:40.992Z,13.80
2018-04-22T07:25:08.177Z,13.87
2018-04-22T07:26:34.624Z,13.94
2018-04-22T07:28:01.725Z,14.01
2018-04-22T07:29:29.108Z,14.05
2018-04-22T07:30:56.560Z,14.11
2018-04-22T07:32:23.779Z,14.16
2018-04-22T07:33:50.989Z,14.22
2018-04-22T07:35:18.054Z,14.24
2018-04-22T07:36:45.419Z,14.26
2018-04-22T07:38:12.945Z,14.29
2018-04-22T07:39:40.270Z,14.28
2018-04-22T07:41:08.467Z,14.34
2018-04-22T07:42:35.731Z,14.37
2018-04-22T07:44:02.731Z,14.39
2018-04-22T07:45:29.168Z,14.47
2018-04-22T07:46:56.823Z,14.55
2018-04-22T07:48:25.183Z,14.61
2018-04-22T07:49:51.652Z,14.67
2018-04-22T07:51:18.883Z,14.74
2018-04-22T07:52:46.201Z,14.80
2018-04-22T07:54:14.444Z,14.81
2018-04-22T07:55:40.876Z,14.87
2018-04-22T07:57:08.448Z,14.90
2018-04-22T07:58:35.822Z,14.95
2018-04-22T08:00:03.043Z,14.93
2018-04-22T08:01:30.545Z,14.98
2018-04-22T08:02:57.947Z,15.06
2018-04-22T08:04:25.425Z,15.13
2018-04-22T08:05:53.818Z,15.18
2018-04-22T08:07:20.089Z,15.23
2018-04-22T08:08:47.183Z,15.28
2018-04-22T08:10:16.731Z,15.33
2018-04-22T08:11:42.035Z,15.37
2018-04-22T08:13:09.563Z,15.40
2018-04-22T08:14:36.875Z,15.44
2018-04-22T08:16:04.342Z,15.55
2018-04-22T08:17:31.684Z,15.62
2018-04-22T08:18:59.108Z,15.67
2018-04-22T08:20:26.426Z,15.75
2018-04-22T08:21:54.775Z,15.88
2018-04-22T08:23:21.035Z,15.94
2018-04-22T08:24:48.307Z,16.01
2018-04-22T08:26:15.478Z,16.07
2018-04-22T08:27:42.830Z,16.14
2018-04-22T08:29:10.329Z,16.22
2018-04-22T08:30:37.899Z,16.25
2018-04-22T08:32:05.203Z,16.27
2018-04-22T08:33:33.789Z,16.28
2018-04-22T08:35:00.166Z,16.27
2018-04-22T08:36:28.230Z,16.23
2018-04-22T08:37:54.683Z,16.22
2018-04-22T08:39:21.907Z,16.26
2018-04-22T08:40:49.305Z,16.27
2018-04-22T08:42:17.638Z,16.33
2018-04-22T08:43:43.923Z,16.36
2018-04-22T08:45:12.251Z,16.41
2018-04-22T08:46:39.640Z,16.46
2018-04-22T08:48:06.058Z,16.52
2018-04-22T08:49:33.483Z,16.54
2018-04-22T08:51:00.980Z,16.56
2018-04-22T08:52:28.396Z,16.60
2018-04-22T08:53:55.831Z,16.64
2018-04-22T08:55:24.303Z,16.67
2018-04-22T08:56:50.841Z,16.70
2018-04-22T08:58:18.219Z,16.70
2018-04-22T08:59:45.670Z,16.77
2018-04-22T09:01:14.124Z,16.84
2018-04-22T09:02:40.691Z,16.91
2018-04-22T09:04:08.002Z,17.00
2018-04-22T09:05:35.464Z,17.06
2018-04-22T09:07:09.021Z,17.14
2018-04-22T09:08:31.386Z,17.21
2018-04-22T09:09:57.676Z,17.30
2018-04-22T09:11:26.037Z,17.33
2018-04-22T09:12:52.440Z,17.35
2018-04-22T09:14:19.713Z,17.41
2018-04-22T09:15:47.076Z,17.44
2018-04-22T09:17:15.296Z,17.49
2018-04-22T09:18:42.674Z,17.50
2018-04-22T09:20:10.243Z,17.51
2018-04-22T09:21:36.651Z,17.59
2018-04-22T09:23:03.901Z,17.67
2018-04-22T09:24:31.173Z,17.77
2018-04-22T09:25:58.480Z,17.85
2018-04-22T09:27:26.930Z,17.86
2018-04-22T09:28:54.280Z,17.86
2018-04-22T09:30:20.769Z,17.92
2018-04-22T09:31:48.206Z,17.90
2018-04-22T09:33:15.563Z,17.94
2018-04-22T09:34:43.913Z,17.99
2018-04-22T09:36:11.347Z,18.04
2018-04-22T09:37:37.808Z,18.08
2018-04-22T09:39:05.357Z,18.05
2018-04-22T09:40:32.800Z,18.05
2018-04-22T09:42:00.227Z,18.05
2018-04-22T09:43:28.658Z,18.09
2018-04-22T09:44:56.170Z,18.10
2018-04-22T09:46:22.489Z,18.09
2018-04-22T09:47:50.038Z,18.11
2018-04-22T09:49:18.297Z,18.11
2018-04-22T09:50:44.710Z,18.17
2018-04-22T09:52:12.144Z,18.20
2018-04-22T09:53:39.572Z,18.26
2018-04-22T09:55:06.938Z,18.33
2018-04-22T09:56:35.231Z,18.40
2018-04-22T09:58:01.788Z,18.42
2018-04-22T09:59:28.960Z,18.38
2018-04-22T10:00:56.504Z,18.41
2018-04-22T10:02:24.891Z,18.42
2018-04-22T10:03:51.452Z,18.45
2018-04-22T10:05:18.903Z,18.48
2018-04-22T10:06:46.343Z,18.52
2018-04-22T10:08:14.622Z,18.53
2018-04-22T10:09:41.136Z,18.51
2018-04-22T10:11:08.389Z,18.46
2018-04-22T10:12:36.018Z,18.48
2018-04-22T10:14:03.168Z,18.54
2018-04-22T10:15:30.613Z,18.56
2018-04-22T10:16:58.028Z,18.56
2018-04-22T10:18:25.343Z,18.57
2018-04-22T10:19:53.958Z,18.52
2018-04-22T10:21:21.221Z,18.47
2018-04-22T10:22:47.603Z,18.48
2018-04-22T10:24:15.021Z,18.48
2018-04-22T10:25:42.504Z,18.54
2018-04-22T10:27:09.798Z,18.58
2018-04-22T10:28:37.229Z,18.62
2018-04-22T10:30:04.670Z,18.83
2018-04-22T10:31:31.667Z,18.55
2018-04-22T10:32:59.212Z,18.48
2018-04-22T10:34:26.865Z,18.41
2018-04-22T10:35:55.139Z,18.35
2018-04-22T10:37:21.547Z,18.32
2018-04-22T10:38:48.925Z,18.34
2018-04-22T10:40:17.515Z,18.42
2018-04-22T10:41:43.558Z,18.50
2018-04-22T10:43:11.912Z,18.54
2018-04-22T10:44:38.083Z,18.53
2018-04-22T10:46:06.239Z,18.56
2018-04-22T10:47:32.708Z,18.63
2018-04-22T10:49:00.119Z,18.63
2018-04-22T10:50:28.514Z,18.68
2018-04-22T10:51:55.089Z,18.70
2018-04-22T10:53:23.380Z,18.61
2018-04-22T10:54:50.917Z,18.55
2018-04-22T10:56:17.230Z,18.52
2018-04-22T10:57:44.568Z,18.57
2018-04-22T10:59:12.135Z,18.68
2018-04-22T11:00:39.733Z,18.78
2018-04-22T11:02:07.117Z,18.89
2018-04-22T11:03:34.358Z,18.99
2018-04-22T11:05:01.757Z,19.12
2018-04-22T11:06:29.402Z,19.28
2018-04-22T11:07:57.801Z,19.45
2018-04-22T11:09:24.132Z,19.62
2018-04-22T11:10:52.612Z,19.82
2018-04-22T11:12:19.012Z,19.64
2018-04-22T11:13:46.434Z,19.60
2018-04-22T11:15:14.768Z,19.55
2018-04-22T11:16:41.302Z,19.79
2018-04-22T11:18:08.785Z,19.91
2018-04-22T11:19:37.296Z,19.80
2018-04-22T11:21:03.812Z,20.15
2018-04-22T11:22:32.384Z,20.48
2018-04-22T11:23:58.863Z,20.73
2018-04-22T11:25:26.538Z,20.74
2018-04-22T11:26:53.998Z,20.73
2018-04-22T11:28:21.456Z,20.65
2018-04-22T11:29:48.751Z,20.65
2018-04-22T11:31:16.215Z,20.64
2018-04-22T11:32:43.407Z,20.63
2018-04-22T11:34:10.866Z,20.57
2018-04-22T11:35:38.564Z,20.70
2018-04-22T11:37:06.007Z,20.86
2018-04-22T11:38:33.509Z,20.91
2018-04-22T11:40:01.824Z,21.15
2018-04-22T11:41:28.226Z,21.26
2018-04-22T11:42:55.682Z,21.22
2018-04-22T11:44:23.286Z,20.97
2018-04-22T11:45:50.719Z,21.01
2018-04-22T11:47:18.121Z,21.24
2018-04-22T11:48:46.451Z,21.32
2018-04-22T11:50:13.941Z,21.31
2018-04-22T11:51:40.544Z,21.34
2018-04-22T11:53:08.934Z,21.48
2018-04-22T11:54:35.450Z,21.54
2018-04-22T11:56:02.910Z,21.50
2018-04-22T11:57:31.476Z,21.47
2018-04-22T11:58:58.013Z,21.42
2018-04-22T12:00:25.414Z,21.40
2018-04-22T12:01:53.904Z,21.36
2018-04-22T12:03:21.410Z,21.53
2018-04-22T12:04:48.023Z,21.72
2018-04-22T12:06:16.546Z,21.82
2018-04-22T12:07:43.261Z,21.83
2018-04-22T12:09:11.830Z,21.75
2018-04-22T12:10:38.236Z,21.69
2018-04-22T12:12:05.704Z,21.73
2018-04-22T12:13:33.417Z,22.07
2018-04-22T12:15:00.924Z,22.48
2018-04-22T12:16:28.384Z,22.88
2018-04-22T12:17:56.077Z,22.77
2018-04-22T12:19:23.468Z,23.01
2018-04-22T12:20:51.000Z,23.34
2018-04-22T12:22:18.579Z,23.43
2018-04-22T12:23:46.991Z,23.62
2018-04-22T12:25:13.203Z,23.41
2018-04-22T12:26:40.713Z,23.19
2018-04-22T12:28:09.446Z,22.93
2018-04-22T12:29:35.919Z,22.69
2018-04-22T12:31:03.318Z,22.78
2018-04-22T12:32:31.794Z,22.52
2018-04-22T12:33:58.424Z,22.43
2018-04-22T12:35:26.937Z,22.39
2018-04-22T12:36:54.441Z,22.58
2018-04-22T12:38:21.003Z,22.39
2018-04-22T12:39:48.672Z,22.33
2018-04-22T12:41:15.991Z,22.35
2018-04-22T12:42:43.547Z,22.40
2018-04-22T12:44:11.018Z,22.52
2018-04-22T12:45:39.685Z,22.46
2018-04-22T12:47:06.174Z,22.46
2018-04-22T12:48:34.774Z,22.39
2018-04-22T12:50:02.314Z,22.46
2018-04-22T12:51:28.868Z,22.67
2018-04-22T12:52:56.261Z,23.04
2018-04-22T12:54:23.680Z,23.36
2018-04-22T12:55:51.213Z,23.39
2018-04-22T12:57:19.935Z,23.08
2018-04-22T12:58:47.267Z,22.81
2018-04-22T13:00:13.626Z,22.84
2018-04-22T13:01:40.882Z,22.99
2018-04-22T13:03:08.560Z,22.79
2018-04-22T13:04:36.207Z,22.57
2018-04-22T13:06:03.598Z,22.40
2018-04-22T13:07:30.967Z,22.32
2018-04-22T13:08:58.441Z,22.23
2018-04-22T13:10:26.955Z,22.32
2018-04-22T13:11:53.431Z,22.14
2018-04-22T13:13:20.813Z,22.07
2018-04-22T13:14:47.960Z,22.15
2018-04-22T13:16:15.439Z,21.99
2018-04-22T13:17:42.817Z,22.10
2018-04-22T13:19:11.358Z,22.31
2018-04-22T13:20:37.983Z,22.23
2018-04-22T13:22:06.386Z,22.29
2018-04-22T13:23:33.024Z,22.45
2018-04-22T13:25:00.548Z,22.53
2018-04-22T13:26:28.204Z,22.42
2018-04-22T13:27:55.951Z,22.21
2018-04-22T13:29:24.233Z,22.06
2018-04-22T13:30:50.723Z,21.94
2018-04-22T13:32:18.222Z,21.94
2018-04-22T13:33:45.812Z,21.80
2018-04-22T13:35:13.347Z,21.61
2018-04-22T13:36:40.782Z,21.39
2018-04-22T13:38:08.405Z,21.33
2018-04-22T13:39:35.782Z,21.27
2018-04-22T13:41:03.360Z,21.23
2018-04-22T13:42:31.691Z,21.21
2018-04-22T13:43:59.278Z,21.22
2018-04-22T13:45:26.825Z,21.23
2018-04-22T13:46:54.312Z,21.20
2018-04-22T13:48:20.854Z,21.20
2018-04-22T13:49:48.316Z,21.29
2018-04-22T13:51:15.676Z,21.21
2018-04-22T13:52:43.000Z,21.09
2018-04-22T13:54:10.471Z,20.97
2018-04-22T13:55:39.026Z,20.93
2018-04-22T13:57:05.729Z,20.91
2018-04-22T13:58:33.228Z,20.94
2018-04-22T14:00:00.546Z,21.04
2018-04-22T14:01:29.144Z,20.98
2018-04-22T14:02:55.786Z,20.92
2018-04-22T14:04:24.410Z,20.92
2018-04-22T14:05:50.952Z,20.89
2018-04-22T14:07:18.267Z,20.87
2018-04-22T14:08:46.808Z,20.89
2018-04-22T14:10:13.219Z,20.89
2018-04-22T14:11:40.765Z,20.84
2018-04-22T14:13:08.394Z,20.85
2018-04-22T14:14:36.869Z,20.87
2018-04-22T14:16:03.183Z,20.85
2018-04-22T14:17:30.874Z,20.86
2018-04-22T14:18:58.253Z,20.89
2018-04-22T14:20:25.539Z,20.89
2018-04-22T14:21:52.731Z,20.98
2018-04-22T14:23:20.962Z,21.05
2018-04-22T14:24:47.514Z,21.02
2018-04-22T14:26:15.836Z,20.98
2018-04-22T14:27:43.426Z,20.93
2018-04-22T14:29:09.777Z,20.84
2018-04-22T14:30:37.129Z,20.80
2018-04-22T14:32:04.821Z,20.82
2018-04-22T14:33:32.391Z,20.78
2018-04-22T14:35:00.757Z,20.82
2018-04-22T14:36:26.799Z,20.87
2018-04-22T14:37:54.228Z,20.95
2018-04-22T14:39:22.508Z,21.00
2018-04-22T14:40:49.738Z,20.92
2018-04-22T14:42:17.099Z,20.93
2018-04-22T14:43:44.487Z,20.90
2018-04-22T14:45:10.938Z,20.89
2018-04-22T14:46:39.238Z,20.89
2018-04-22T14:48:05.907Z,20.89
2018-04-22T14:49:33.002Z,20.81
2018-04-22T14:51:00.601Z,20.77
2018-04-22T14:52:27.971Z,20.70
2018-04-22T14:53:55.454Z,20.61
2018-04-22T14:55:22.816Z,20.59
2018-04-22T14:56:51.245Z,20.58
2018-04-22T14:58:17.639Z,20.48
2018-04-22T14:59:45.907Z,20.46
2018-04-22T15:01:12.482Z,20.48
2018-04-22T15:02:39.664Z,20.49
2018-04-22T15:04:08.227Z,20.50
2018-04-22T15:05:34.905Z,20.55
2018-04-22T15:07:03.115Z,20.61
2018-04-22T15:08:29.535Z,20.68
2018-04-22T15:09:58.032Z,20.74
2018-04-22T15:11:24.619Z,20.80
2018-04-22T15:12:52.035Z,20.84
2018-04-22T15:14:20.265Z,20.88
2018-04-22T15:15:46.717Z,20.81
2018-04-22T15:17:14.158Z,20.80
2018-04-22T15:18:41.690Z,20.75
2018-04-22T15:20:09.219Z,20.68
2018-04-22T15:21:36.735Z,20.63
2018-04-22T15:23:04.164Z,20.58
2018-04-22T15:24:31.704Z,20.52
2018-04-22T15:25:59.070Z,20.53
2018-04-22T15:27:27.571Z,20.53
2018-04-22T15:28:54.143Z,20.51
2018-04-22T15:30:21.627Z,20.44
2018-04-22T15:31:49.023Z,20.37
2018-04-22T15:33:16.270Z,20.33
2018-04-22T15:34:43.524Z,20.33
2018-04-22T15:36:11.095Z,20.27
2018-04-22T15:37:38.675Z,20.26
2018-04-22T15:39:06.123Z,20.25
2018-04-22T15:40:33.607Z,20.25
2018-04-22T15:42:00.945Z,20.23
2018-04-22T15:43:28.318Z,20.21
2018-04-22T15:44:56.921Z,20.20
2018-04-22T15:46:23.457Z,20.18
2018-04-22T15:47:51.745Z,20.16
2018-04-22T15:49:18.145Z,20.14
2018-04-22T15:50:46.492Z,20.11
2018-04-22T15:52:12.966Z,20.08
2018-04-22T15:53:40.448Z,20.06
2018-04-22T15:55:08.849Z,20.05
2018-04-22T15:56:35.377Z,20.04
2018-04-22T15:58:03.885Z,20.06
2018-04-22T15:59:31.296Z,20.05
2018-04-22T16:00:57.770Z,20.06
2018-04-22T16:02:26.213Z,20.02
2018-04-22T16:03:52.878Z,19.99
2018-04-22T16:05:21.356Z,19.96
2018-04-22T16:06:47.711Z,19.94
2018-04-22T16:08:16.142Z,19.94
2018-04-22T16:09:42.454Z,19.91
2018-04-22T16:11:09.837Z,19.87
2018-04-22T16:12:37.459Z,19.85
2018-04-22T16:14:04.984Z,19.85
2018-04-22T16:15:33.559Z,19.85
2018-04-22T16:16:59.435Z,19.85
2018-04-22T16:18:27.927Z,19.85
2018-04-22T16:19:54.258Z,19.86
2018-04-22T16:21:21.657Z,19.87
2018-04-22T16:22:49.264Z,19.86
2018-04-22T16:24:16.406Z,19.87
2018-04-22T16:25:44.747Z,19.86
2018-04-22T16:27:12.083Z,19.82
2018-04-22T16:28:38.630Z,19.80
2018-04-22T16:30:06.083Z,19.78
2018-04-22T16:31:33.543Z,19.75
2018-04-22T16:33:02.048Z,19.73
2018-04-22T16:34:28.329Z,19.69
2018-04-22T16:35:56.941Z,19.66
2018-04-22T16:37:23.313Z,19.62
2018-04-22T16:38:51.782Z,19.58
2018-04-22T16:40:18.186Z,19.58
2018-04-22T16:41:45.591Z,19.57
2018-04-22T16:43:13.232Z,19.54
2018-04-22T16:44:40.442Z,19.50
2018-04-22T16:46:08.790Z,19.49
2018-04-22T16:47:35.390Z,19.47
2018-04-22T16:49:02.811Z,19.46
2018-04-22T16:50:31.172Z,19.45
2018-04-22T16:51:57.188Z,19.42
2018-04-22T16:53:24.264Z,19.44
2018-04-22T16:54:51.829Z,19.43
2018-04-22T16:56:19.238Z,19.44
2018-04-22T16:57:46.601Z,19.45
2018-04-22T16:59:13.918Z,19.45
2018-04-22T17:00:42.399Z,19.46
2018-04-22T17:02:09.800Z,19.44
2018-04-22T17:03:36.358Z,19.42
2018-04-22T17:05:03.854Z,19.38
2018-04-22T17:06:31.341Z,19.37
2018-04-22T17:07:59.872Z,19.33
2018-04-22T17:09:26.424Z,19.28
2018-04-22T17:10:53.822Z,19.24
2018-04-22T17:12:21.323Z,19.22
2018-04-22T17:13:48.577Z,19.17
2018-04-22T17:15:16.065Z,19.13
2018-04-22T17:16:43.697Z,19.10
2018-04-22T17:18:10.923Z,19.05
2018-04-22T17:19:38.602Z,19.00
2018-04-22T17:21:06.041Z,18.98
2018-04-22T17:22:32.960Z,18.97
2018-04-22T17:24:01.515Z,18.96
2018-04-22T17:25:27.833Z,18.93
2018-04-22T17:26:55.131Z,18.92
2018-04-22T17:28:22.551Z,18.91
2018-04-22T17:29:50.941Z,18.90
2018-04-22T17:31:18.322Z,18.88
2018-04-22T17:32:44.541Z,18.86
2018-04-22T17:34:11.992Z,18.81
2018-04-22T17:35:39.500Z,18.79
2018-04-22T17:37:06.827Z,18.75
2018-04-22T17:38:34.434Z,18.70
2018-04-22T17:40:02.702Z,18.68
2018-04-22T17:41:29.117Z,18.63
2018-04-22T17:42:56.496Z,18.59
2018-04-22T17:44:23.984Z,18.56
2018-04-22T17:45:51.486Z,18.52
2018-04-22T17:47:18.953Z,18.48
2018-04-22T17:48:46.220Z,18.45
2018-04-22T17:50:13.341Z,18.42
2018-04-22T17:51:40.703Z,18.38
2018-04-22T17:53:08.208Z,18.34
2018-04-22T17:54:35.484Z,18.30
2018-04-22T17:56:03.058Z,18.26
2018-04-22T17:57:30.343Z,18.22
2018-04-22T17:58:57.894Z,18.18
2018-04-22T18:00:25.333Z,18.16
2018-04-22T18:01:52.849Z,18.12
2018-04-22T18:03:20.148Z,18.07
2018-04-22T18:04:48.617Z,18.03
2018-04-22T18:06:15.129Z,18.00
2018-04-22T18:07:42.394Z,17.94
2018-04-22T18:09:09.749Z,17.90
2018-04-22T18:10:38.199Z,17.87
2018-04-22T18:12:04.474Z,17.83
2018-04-22T18:13:33.050Z,17.78
2018-04-22T18:15:05.537Z,17.75
2018-04-22T18:16:27.928Z,17.72
2018-04-22T18:17:54.377Z,17.70
2018-04-22T18:19:22.855Z,17.66
2018-04-22T18:20:49.309Z,17.62
2018-04-22T18:22:16.824Z,17.58
2018-04-22T18:23:44.967Z,17.54
2018-04-22T18:25:11.261Z,17.50
2018-04-22T18:26:39.809Z,17.47
2018-04-22T18:28:07.278Z,17.42
2018-04-22T18:29:33.737Z,17.38
2018-04-22T18:31:01.146Z,17.34
2018-04-22T18:32:28.544Z,17.32
2018-04-22T18:33:55.705Z,17.30
2018-04-22T18:35:23.207Z,17.28
2018-04-22T18:36:51.490Z,17.25
2018-04-22T18:38:18.930Z,17.21
2018-04-22T18:39:44.930Z,17.19
2018-04-22T18:41:13.302Z,17.19
2018-04-22T18:42:39.748Z,17.19
2018-04-22T18:44:08.183Z,17.17
2018-04-22T18:45:34.566Z,17.13
2018-04-22T18:47:01.933Z,17.10
2018-04-22T18:48:30.302Z,17.05
2018-04-22T18:49:57.592Z,16.97
2018-04-22T18:51:23.950Z,16.84
2018-04-22T18:52:52.404Z,16.73
2018-04-22T18:54:18.752Z,16.65